sensor_id;sensor_type;location;lat;lon;timestamp;temperature;humidity
40151;DHT22;25866;52.420;10.640;2022-10-15T00:00:10;14.20;99.90
40151;DHT22;25866;52.420;10.640;2022-10-15T00:02:36;14.30;99.90
40151;DHT22;25866;52.420;10.640;2022-10-15T00:05:02;14.20;99.90
40151;DHT22;25866;52.420;10.640;2022-10-15T00:07:28;14.20;99.90
40151;DHT22;25866;52.420;10.640;2022-10-15T00:09:54;14.20;99.90
40151;DHT22;25866;52.420;10.640;2022-10-15T00:12:20;14.20;99.90
40151;DHT22;25866;52.420;10.640;2022-10-15T00:14:45;14.20;99.90
40151;DHT22;25866;52.420;10.640;2022-10-15T00:17:11;14.20;99.90
40151;DHT22;25866;52.420;10.640;2022-10-15T00:19:37;14.20;99.90
40151;DHT22;25866;52.420;10.640;2022-10-15T00:22:03;14.20;99.90
40151;DHT22;25866;52.420;10.640;2022-10-15T00:24:29;14.10;99.90
40151;DHT22;25866;52.420;10.640;2022-10-15T00:26:57;14.20;99.90
40151;DHT22;25866;52.420;10.640;2022-10-15T00:29:24;14.10;99.90
40151;DHT22;25866;52.420;10.640;2022-10-15T00:31:57;14.10;99.90
40151;DHT22;25866;52.420;10.640;2022-10-15T00:34:28;14.10;99.90
40151;DHT22;25866;52.420;10.640;2022-10-15T00:36:55;14.10;99.90
40151;DHT22;25866;52.420;10.640;2022-10-15T00:39:20;14.10;99.90
40151;DHT22;25866;52.420;10.640;2022-10-15T00:41:46;14.00;99.90
40151;DHT22;25866;52.420;10.640;2022-10-15T00:46:59;14.10;99.90
40151;DHT22;25866;52.420;10.640;2022-10-15T00:49:36;14.10;99.90
40151;DHT22;25866;52.420;10.640;2022-10-15T00:52:05;14.00;99.90
40151;DHT22;25866;52.420;10.640;2022-10-15T00:54:40;14.00;99.90
40151;DHT22;25866;52.420;10.640;2022-10-15T00:57:10;14.00;99.90
40151;DHT22;25866;52.420;10.640;2022-10-15T00:59:42;14.00;99.90
40151;DHT22;25866;52.420;10.640;2022-10-15T01:02:09;14.00;99.90
40151;DHT22;25866;52.420;10.640;2022-10-15T01:04:36;14.10;99.90
40151;DHT22;25866;52.420;10.640;2022-10-15T01:07:02;14.10;99.90
40151;DHT22;25866;52.420;10.640;2022-10-15T01:09:27;14.10;99.90
40151;DHT22;25866;52.420;10.640;2022-10-15T01:11:54;14.10;99.90
40151;DHT22;25866;52.420;10.640;2022-10-15T01:14:38;14.10;99.90
40151;DHT22;25866;52.420;10.640;2022-10-15T01:17:26;14.10;99.90
40151;DHT22;25866;52.420;10.640;2022-10-15T01:31:44;14.00;99.90
40151;DHT22;25866;52.420;10.640;2022-10-15T01:42:16;14.00;99.90
40151;DHT22;25866;52.420;10.640;2022-10-15T01:44:49;14.00;99.90
40151;DHT22;25866;52.420;10.640;2022-10-15T01:47:23;14.00;99.90
40151;DHT22;25866;52.420;10.640;2022-10-15T01:49:54;14.00;99.90
40151;DHT22;25866;52.420;10.640;2022-10-15T01:52:30;14.00;99.90
40151;DHT22;25866;52.420;10.640;2022-10-15T01:54:58;14.00;99.90
40151;DHT22;25866;52.420;10.640;2022-10-15T01:57:28;14.00;99.90
40151;DHT22;25866;52.420;10.640;2022-10-15T01:59:56;14.00;99.90
40151;DHT22;25866;52.420;10.640;2022-10-15T02:02:22;14.00;99.90
40151;DHT22;25866;52.420;10.640;2022-10-15T02:04:48;14.00;99.90
40151;DHT22;25866;52.420;10.640;2022-10-15T02:15:33;14.00;99.90
40151;DHT22;25866;52.420;10.640;2022-10-15T02:21:35;14.00;99.90
40151;DHT22;25866;52.420;10.640;2022-10-15T02:24:10;14.00;99.90
40151;DHT22;25866;52.420;10.640;2022-10-15T02:26:36;14.00;99.90
40151;DHT22;25866;52.420;10.640;2022-10-15T02:29:05;14.00;99.90
40151;DHT22;25866;52.420;10.640;2022-10-15T02:31:33;13.90;99.90
40151;DHT22;25866;52.420;10.640;2022-10-15T02:34:07;13.90;99.90
40151;DHT22;25866;52.420;10.640;2022-10-15T02:36:34;13.90;99.90
40151;DHT22;25866;52.420;10.640;2022-10-15T02:39:02;13.90;99.90
40151;DHT22;25866;52.420;10.640;2022-10-15T02:41:29;13.80;99.90
40151;DHT22;25866;52.420;10.640;2022-10-15T02:43:55;13.80;99.90
40151;DHT22;25866;52.420;10.640;2022-10-15T02:46:21;13.80;99.90
40151;DHT22;25866;52.420;10.640;2022-10-15T02:48:48;13.70;99.90
40151;DHT22;25866;52.420;10.640;2022-10-15T02:51:15;13.70;99.90
40151;DHT22;25866;52.420;10.640;2022-10-15T02:53:41;13.70;99.90
40151;DHT22;25866;52.420;10.640;2022-10-15T02:56:07;13.70;99.90
40151;DHT22;25866;52.420;10.640;2022-10-15T02:58:33;13.70;99.90
40151;DHT22;25866;52.420;10.640;2022-10-15T03:00:59;13.70;99.90
40151;DHT22;25866;52.420;10.640;2022-10-15T03:03:26;13.70;99.90
40151;DHT22;25866;52.420;10.640;2022-10-15T03:05:53;13.70;99.90
40151;DHT22;25866;52.420;10.640;2022-10-15T03:08:18;13.70;99.90
40151;DHT22;25866;52.420;10.640;2022-10-15T03:10:44;13.70;99.90
40151;DHT22;25866;52.420;10.640;2022-10-15T03:13:11;13.70;99.90
40151;DHT22;25866;52.420;10.640;2022-10-15T03:15:37;13.60;99.90
40151;DHT22;25866;52.420;10.640;2022-10-15T03:18:03;13.60;99.90
40151;DHT22;25866;52.420;10.640;2022-10-15T03:20:29;13.70;99.90
40151;DHT22;25866;52.420;10.640;2022-10-15T03:22:56;13.60;99.90
40151;DHT22;25866;52.420;10.640;2022-10-15T03:25:22;13.60;99.90
40151;DHT22;25866;52.420;10.640;2022-10-15T03:27:48;13.60;99.90
40151;DHT22;25866;52.420;10.640;2022-10-15T03:30:14;13.60;99.90
40151;DHT22;25866;52.420;10.640;2022-10-15T03:32:39;13.60;99.90
40151;DHT22;25866;52.420;10.640;2022-10-15T03:35:06;13.60;99.90
40151;DHT22;25866;52.420;10.640;2022-10-15T03:37:32;13.60;99.90
40151;DHT22;25866;52.420;10.640;2022-10-15T03:39:58;13.60;99.90
40151;DHT22;25866;52.420;10.640;2022-10-15T03:42:24;13.60;99.90
40151;DHT22;25866;52.420;10.640;2022-10-15T03:44:49;13.60;99.90
40151;DHT22;25866;52.420;10.640;2022-10-15T03:47:15;13.60;99.90
40151;DHT22;25866;52.420;10.640;2022-10-15T03:49:41;13.60;99.90
40151;DHT22;25866;52.420;10.640;2022-10-15T03:52:08;13.50;99.90
40151;DHT22;25866;52.420;10.640;2022-10-15T03:54:35;13.60;99.90
40151;DHT22;25866;52.420;10.640;2022-10-15T03:57:10;13.60;99.90
40151;DHT22;25866;52.420;10.640;2022-10-15T03:59:37;13.60;99.90
40151;DHT22;25866;52.420;10.640;2022-10-15T04:02:03;13.50;99.90
40151;DHT22;25866;52.420;10.640;2022-10-15T04:04:30;13.50;99.90
40151;DHT22;25866;52.420;10.640;2022-10-15T04:06:57;13.50;99.90
40151;DHT22;25866;52.420;10.640;2022-10-15T04:09:25;13.50;99.90
40151;DHT22;25866;52.420;10.640;2022-10-15T04:11:52;13.40;99.90
40151;DHT22;25866;52.420;10.640;2022-10-15T04:14:19;13.40;99.90
40151;DHT22;25866;52.420;10.640;2022-10-15T04:16:45;13.40;99.90
40151;DHT22;25866;52.420;10.640;2022-10-15T04:19:11;13.40;99.90
40151;DHT22;25866;52.420;10.640;2022-10-15T04:21:37;13.30;99.90
40151;DHT22;25866;52.420;10.640;2022-10-15T04:24:03;13.30;99.90
40151;DHT22;25866;52.420;10.640;2022-10-15T04:26:28;13.30;99.90
40151;DHT22;25866;52.420;10.640;2022-10-15T04:28:55;13.20;99.90
40151;DHT22;25866;52.420;10.640;2022-10-15T04:31:22;13.10;99.90
40151;DHT22;25866;52.420;10.640;2022-10-15T04:33:48;13.10;99.90
40151;DHT22;25866;52.420;10.640;2022-10-15T04:36:14;13.00;99.90
40151;DHT22;25866;52.420;10.640;2022-10-15T04:38:39;13.00;99.90
40151;DHT22;25866;52.420;10.640;2022-10-15T04:41:08;13.00;99.90
40151;DHT22;25866;52.420;10.640;2022-10-15T04:43:35;13.00;99.90
40151;DHT22;25866;52.420;10.640;2022-10-15T04:46:03;13.00;99.90
40151;DHT22;25866;52.420;10.640;2022-10-15T04:48:30;13.00;99.90
40151;DHT22;25866;52.420;10.640;2022-10-15T04:51:10;13.00;99.90
40151;DHT22;25866;52.420;10.640;2022-10-15T04:53:38;13.00;99.90
40151;DHT22;25866;52.420;10.640;2022-10-15T04:56:07;12.80;99.90
40151;DHT22;25866;52.420;10.640;2022-10-15T04:58:35;12.80;99.90
40151;DHT22;25866;52.420;10.640;2022-10-15T05:01:07;12.80;99.90
40151;DHT22;25866;52.420;10.640;2022-10-15T05:03:34;12.80;99.90
40151;DHT22;25866;52.420;10.640;2022-10-15T05:06:02;12.80;99.90
40151;DHT22;25866;52.420;10.640;2022-10-15T05:08:29;12.70;99.90
40151;DHT22;25866;52.420;10.640;2022-10-15T05:11:03;12.60;99.90
40151;DHT22;25866;52.420;10.640;2022-10-15T05:13:32;12.60;99.90
40151;DHT22;25866;52.420;10.640;2022-10-15T05:16:11;12.60;99.90
40151;DHT22;25866;52.420;10.640;2022-10-15T05:18:38;12.60;99.90
40151;DHT22;25866;52.420;10.640;2022-10-15T05:21:04;12.60;99.90
40151;DHT22;25866;52.420;10.640;2022-10-15T05:23:30;12.60;99.90
40151;DHT22;25866;52.420;10.640;2022-10-15T05:26:00;12.50;99.90
40151;DHT22;25866;52.420;10.640;2022-10-15T05:28:26;12.50;99.90
40151;DHT22;25866;52.420;10.640;2022-10-15T05:30:51;12.50;99.90
40151;DHT22;25866;52.420;10.640;2022-10-15T05:33:17;12.50;99.90
40151;DHT22;25866;52.420;10.640;2022-10-15T05:35:43;12.50;99.90
40151;DHT22;25866;52.420;10.640;2022-10-15T05:38:08;12.60;99.90
40151;DHT22;25866;52.420;10.640;2022-10-15T05:40:34;12.60;99.90
40151;DHT22;25866;52.420;10.640;2022-10-15T05:43:00;12.60;99.90
40151;DHT22;25866;52.420;10.640;2022-10-15T05:45:27;12.60;99.90
40151;DHT22;25866;52.420;10.640;2022-10-15T05:47:54;12.50;99.90
40151;DHT22;25866;52.420;10.640;2022-10-15T05:50:21;12.50;99.90
40151;DHT22;25866;52.420;10.640;2022-10-15T05:52:48;12.50;99.90
40151;DHT22;25866;52.420;10.640;2022-10-15T05:55:14;12.50;99.90
40151;DHT22;25866;52.420;10.640;2022-10-15T05:57:40;12.50;99.90
40151;DHT22;25866;52.420;10.640;2022-10-15T06:00:07;12.40;99.90
40151;DHT22;25866;52.420;10.640;2022-10-15T06:02:34;12.50;99.90
40151;DHT22;25866;52.420;10.640;2022-10-15T06:05:00;12.50;99.90
40151;DHT22;25866;52.420;10.640;2022-10-15T06:07:26;12.50;99.90
40151;DHT22;25866;52.420;10.640;2022-10-15T06:09:52;12.50;99.90
40151;DHT22;25866;52.420;10.640;2022-10-15T06:12:18;12.50;99.90
40151;DHT22;25866;52.420;10.640;2022-10-15T06:14:43;12.50;99.90
40151;DHT22;25866;52.420;10.640;2022-10-15T06:17:09;12.50;99.90
40151;DHT22;25866;52.420;10.640;2022-10-15T06:19:35;12.50;99.90
40151;DHT22;25866;52.420;10.640;2022-10-15T06:22:00;12.50;99.90
40151;DHT22;25866;52.420;10.640;2022-10-15T06:24:26;12.50;99.90
40151;DHT22;25866;52.420;10.640;2022-10-15T06:26:52;12.50;99.90
40151;DHT22;25866;52.420;10.640;2022-10-15T06:29:18;12.60;99.90
40151;DHT22;25866;52.420;10.640;2022-10-15T06:31:44;12.50;99.90
40151;DHT22;25866;52.420;10.640;2022-10-15T06:34:10;12.50;99.90
40151;DHT22;25866;52.420;10.640;2022-10-15T06:36:36;12.60;99.90
40151;DHT22;25866;52.420;10.640;2022-10-15T06:39:03;12.60;99.90
40151;DHT22;25866;52.420;10.640;2022-10-15T06:41:29;12.60;99.90
40151;DHT22;25866;52.420;10.640;2022-10-15T06:43:59;12.70;99.90
40151;DHT22;25866;52.420;10.640;2022-10-15T06:46:25;12.70;99.90
40151;DHT22;25866;52.420;10.640;2022-10-15T06:48:53;12.70;99.90
40151;DHT22;25866;52.420;10.640;2022-10-15T06:51:25;12.70;99.90
40151;DHT22;25866;52.420;10.640;2022-10-15T06:53:52;12.70;99.90
40151;DHT22;25866;52.420;10.640;2022-10-15T06:56:24;12.80;99.90
40151;DHT22;25866;52.420;10.640;2022-10-15T06:58:54;12.80;99.90
40151;DHT22;25866;52.420;10.640;2022-10-15T07:01:29;12.80;99.90
40151;DHT22;25866;52.420;10.640;2022-10-15T07:04:06;12.80;99.90
40151;DHT22;25866;52.420;10.640;2022-10-15T07:06:35;12.80;99.90
40151;DHT22;25866;52.420;10.640;2022-10-15T07:09:06;12.80;99.90
40151;DHT22;25866;52.420;10.640;2022-10-15T07:11:33;12.80;99.90
40151;DHT22;25866;52.420;10.640;2022-10-15T07:14:00;12.90;99.90
40151;DHT22;25866;52.420;10.640;2022-10-15T07:16:30;12.90;99.90
40151;DHT22;25866;52.420;10.640;2022-10-15T07:19:10;12.90;99.90
40151;DHT22;25866;52.420;10.640;2022-10-15T07:21:51;13.00;99.90
40151;DHT22;25866;52.420;10.640;2022-10-15T07:24:21;13.00;99.90
40151;DHT22;25866;52.420;10.640;2022-10-15T07:26:47;13.10;99.90
40151;DHT22;25866;52.420;10.640;2022-10-15T07:29:17;13.10;99.90
40151;DHT22;25866;52.420;10.640;2022-10-15T07:31:48;13.20;99.90
40151;DHT22;25866;52.420;10.640;2022-10-15T07:34:19;13.30;99.90
40151;DHT22;25866;52.420;10.640;2022-10-15T07:36:54;13.40;99.90
40151;DHT22;25866;52.420;10.640;2022-10-15T07:39:40;13.40;99.90
40151;DHT22;25866;52.420;10.640;2022-10-15T07:42:17;13.40;99.90
40151;DHT22;25866;52.420;10.640;2022-10-15T07:44:46;13.50;99.90
40151;DHT22;25866;52.420;10.640;2022-10-15T07:47:14;13.60;99.90
40151;DHT22;25866;52.420;10.640;2022-10-15T07:49:40;13.60;99.90
40151;DHT22;25866;52.420;10.640;2022-10-15T07:52:06;13.70;99.90
40151;DHT22;25866;52.420;10.640;2022-10-15T07:54:35;13.70;99.90
40151;DHT22;25866;52.420;10.640;2022-10-15T07:57:02;13.80;99.90
40151;DHT22;25866;52.420;10.640;2022-10-15T07:59:32;13.80;99.90
40151;DHT22;25866;52.420;10.640;2022-10-15T08:04:50;13.90;99.90
40151;DHT22;25866;52.420;10.640;2022-10-15T08:07:16;14.00;99.90
40151;DHT22;25866;52.420;10.640;2022-10-15T08:09:42;14.00;99.90
40151;DHT22;25866;52.420;10.640;2022-10-15T08:12:09;14.00;99.90
40151;DHT22;25866;52.420;10.640;2022-10-15T08:14:40;14.10;99.90
40151;DHT22;25866;52.420;10.640;2022-10-15T08:17:10;14.10;99.90
40151;DHT22;25866;52.420;10.640;2022-10-15T08:19:42;14.10;99.90
40151;DHT22;25866;52.420;10.640;2022-10-15T08:22:10;14.20;99.90
40151;DHT22;25866;52.420;10.640;2022-10-15T08:24:37;14.20;99.90
40151;DHT22;25866;52.420;10.640;2022-10-15T08:27:03;14.20;99.90
40151;DHT22;25866;52.420;10.640;2022-10-15T08:29:30;14.20;99.90
40151;DHT22;25866;52.420;10.640;2022-10-15T08:31:55;14.30;99.90
40151;DHT22;25866;52.420;10.640;2022-10-15T08:34:21;14.30;99.90
40151;DHT22;25866;52.420;10.640;2022-10-15T08:36:47;14.40;99.90
40151;DHT22;25866;52.420;10.640;2022-10-15T08:39:12;14.40;99.90
40151;DHT22;25866;52.420;10.640;2022-10-15T08:44:49;14.70;99.90
40151;DHT22;25866;52.420;10.640;2022-10-15T08:47:50;14.70;99.90
40151;DHT22;25866;52.420;10.640;2022-10-15T08:50:40;14.80;99.90
40151;DHT22;25866;52.420;10.640;2022-10-15T08:53:19;14.80;99.90
40151;DHT22;25866;52.420;10.640;2022-10-15T08:55:50;14.90;99.90
40151;DHT22;25866;52.420;10.640;2022-10-15T08:58:27;14.90;99.90
40151;DHT22;25866;52.420;10.640;2022-10-15T09:01:11;15.00;99.90
40151;DHT22;25866;52.420;10.640;2022-10-15T09:04:00;15.10;99.90
40151;DHT22;25866;52.420;10.640;2022-10-15T09:06:37;15.10;99.90
40151;DHT22;25866;52.420;10.640;2022-10-15T09:09:33;15.10;99.90
40151;DHT22;25866;52.420;10.640;2022-10-15T09:14:37;15.30;99.90
40151;DHT22;25866;52.420;10.640;2022-10-15T09:19:42;15.30;99.90
40151;DHT22;25866;52.420;10.640;2022-10-15T09:22:14;15.40;99.90
40151;DHT22;25866;52.420;10.640;2022-10-15T09:24:41;15.50;99.90
40151;DHT22;25866;52.420;10.640;2022-10-15T09:27:33;15.60;99.90
40151;DHT22;25866;52.420;10.640;2022-10-15T09:30:31;15.70;99.90
40151;DHT22;25866;52.420;10.640;2022-10-15T09:33:36;15.80;99.90
40151;DHT22;25866;52.420;10.640;2022-10-15T09:42:14;15.80;99.90
40151;DHT22;25866;52.420;10.640;2022-10-15T09:45:03;15.80;99.90
40151;DHT22;25866;52.420;10.640;2022-10-15T09:47:40;15.80;99.90
40151;DHT22;25866;52.420;10.640;2022-10-15T09:50:13;15.80;99.90
40151;DHT22;25866;52.420;10.640;2022-10-15T09:52:47;15.80;99.90
40151;DHT22;25866;52.420;10.640;2022-10-15T09:58:27;15.90;99.90
40151;DHT22;25866;52.420;10.640;2022-10-15T10:00:56;15.90;99.90
40151;DHT22;25866;52.420;10.640;2022-10-15T10:03:25;15.80;99.90
40151;DHT22;25866;52.420;10.640;2022-10-15T10:06:02;15.80;99.90
40151;DHT22;25866;52.420;10.640;2022-10-15T10:09:15;15.80;99.90
40151;DHT22;25866;52.420;10.640;2022-10-15T10:11:22;15.90;99.90
40151;DHT22;25866;52.420;10.640;2022-10-15T10:13:57;16.00;99.90
40151;DHT22;25866;52.420;10.640;2022-10-15T10:16:25;16.20;99.90
40151;DHT22;25866;52.420;10.640;2022-10-15T10:19:03;16.30;99.90
40151;DHT22;25866;52.420;10.640;2022-10-15T10:21:31;16.50;99.90
40151;DHT22;25866;52.420;10.640;2022-10-15T10:26:43;16.80;99.90
40151;DHT22;25866;52.420;10.640;2022-10-15T10:31:58;17.00;99.90
40151;DHT22;25866;52.420;10.640;2022-10-15T10:34:29;17.20;99.90
40151;DHT22;25866;52.420;10.640;2022-10-15T10:36:56;17.30;99.90
40151;DHT22;25866;52.420;10.640;2022-10-15T10:39:29;17.20;99.90
40151;DHT22;25866;52.420;10.640;2022-10-15T10:41:56;17.20;99.90
40151;DHT22;25866;52.420;10.640;2022-10-15T10:44:34;17.20;99.90
40151;DHT22;25866;52.420;10.640;2022-10-15T10:49:34;17.00;99.90
40151;DHT22;25866;52.420;10.640;2022-10-15T10:52:01;16.90;99.90
40151;DHT22;25866;52.420;10.640;2022-10-15T10:54:31;16.80;99.90
40151;DHT22;25866;52.420;10.640;2022-10-15T10:57:01;16.70;99.90
40151;DHT22;25866;52.420;10.640;2022-10-15T10:59:33;16.70;99.90
40151;DHT22;25866;52.420;10.640;2022-10-15T11:02:01;16.60;99.90
40151;DHT22;25866;52.420;10.640;2022-10-15T11:04:34;16.70;99.90
40151;DHT22;25866;52.420;10.640;2022-10-15T11:15:02;17.10;99.90
40151;DHT22;25866;52.420;10.640;2022-10-15T11:23:19;17.60;99.90
40151;DHT22;25866;52.420;10.640;2022-10-15T11:28:54;18.20;99.90
40151;DHT22;25866;52.420;10.640;2022-10-15T11:50:49;18.30;99.90
40151;DHT22;25866;52.420;10.640;2022-10-15T11:53:43;18.30;99.90
40151;DHT22;25866;52.420;10.640;2022-10-15T11:56:35;18.30;99.90
40151;DHT22;25866;52.420;10.640;2022-10-15T11:59:29;18.40;99.90
40151;DHT22;25866;52.420;10.640;2022-10-15T12:02:09;18.50;99.90
40151;DHT22;25866;52.420;10.640;2022-10-15T12:04:43;18.60;99.90
40151;DHT22;25866;52.420;10.640;2022-10-15T12:07:15;18.70;99.90
40151;DHT22;25866;52.420;10.640;2022-10-15T12:09:47;18.80;99.90
40151;DHT22;25866;52.420;10.640;2022-10-15T12:21:01;17.90;99.90
40151;DHT22;25866;52.420;10.640;2022-10-15T12:26:02;18.40;99.90
40151;DHT22;25866;52.420;10.640;2022-10-15T12:28:52;18.60;99.90
40151;DHT22;25866;52.420;10.640;2022-10-15T12:31:19;18.40;99.90
40151;DHT22;25866;52.420;10.640;2022-10-15T12:33:49;18.20;99.90
40151;DHT22;25866;52.420;10.640;2022-10-15T12:39:22;18.10;99.90
40151;DHT22;25866;52.420;10.640;2022-10-15T12:41:49;18.30;99.90
40151;DHT22;25866;52.420;10.640;2022-10-15T12:46:46;18.90;99.90
40151;DHT22;25866;52.420;10.640;2022-10-15T12:52:00;19.10;99.90
40151;DHT22;25866;52.420;10.640;2022-10-15T12:54:36;18.90;99.90
40151;DHT22;25866;52.420;10.640;2022-10-15T13:02:48;18.90;99.90
40151;DHT22;25866;52.420;10.640;2022-10-15T13:05:31;19.20;99.90
40151;DHT22;25866;52.420;10.640;2022-10-15T13:08:03;18.90;99.90
40151;DHT22;25866;52.420;10.640;2022-10-15T13:10:45;18.90;99.90
40151;DHT22;25866;52.420;10.640;2022-10-15T13:13:15;19.10;99.90
40151;DHT22;25866;52.420;10.640;2022-10-15T13:15:54;19.10;99.90
40151;DHT22;25866;52.420;10.640;2022-10-15T13:18:22;19.20;99.90
40151;DHT22;25866;52.420;10.640;2022-10-15T13:20:49;19.30;99.90
40151;DHT22;25866;52.420;10.640;2022-10-15T13:23:19;19.40;99.90
40151;DHT22;25866;52.420;10.640;2022-10-15T13:25:49;19.50;99.90
40151;DHT22;25866;52.420;10.640;2022-10-15T13:28:36;19.40;99.90
40151;DHT22;25866;52.420;10.640;2022-10-15T13:31:05;19.50;99.90
40151;DHT22;25866;52.420;10.640;2022-10-15T13:33:37;19.50;99.90
40151;DHT22;25866;52.420;10.640;2022-10-15T13:36:06;19.50;99.90
40151;DHT22;25866;52.420;10.640;2022-10-15T13:38:32;19.60;99.90
40151;DHT22;25866;52.420;10.640;2022-10-15T13:40:59;19.60;99.90
40151;DHT22;25866;52.420;10.640;2022-10-15T13:43:25;19.60;99.90
40151;DHT22;25866;52.420;10.640;2022-10-15T13:45:59;19.50;99.90
40151;DHT22;25866;52.420;10.640;2022-10-15T13:48:31;19.20;99.90
40151;DHT22;25866;52.420;10.640;2022-10-15T13:51:04;19.00;99.90
40151;DHT22;25866;52.420;10.640;2022-10-15T13:53:34;18.80;99.90
40151;DHT22;25866;52.420;10.640;2022-10-15T13:56:25;19.00;99.90
40151;DHT22;25866;52.420;10.640;2022-10-15T13:58:52;19.10;99.90
40151;DHT22;25866;52.420;10.640;2022-10-15T14:01:22;19.30;99.90
40151;DHT22;25866;52.420;10.640;2022-10-15T14:06:25;19.30;99.90
40151;DHT22;25866;52.420;10.640;2022-10-15T14:08:53;19.10;99.90
40151;DHT22;25866;52.420;10.640;2022-10-15T14:11:20;19.10;99.90
40151;DHT22;25866;52.420;10.640;2022-10-15T14:14:27;19.20;99.90
40151;DHT22;25866;52.420;10.640;2022-10-15T14:16:54;19.20;99.90
40151;DHT22;25866;52.420;10.640;2022-10-15T14:19:21;19.20;99.90
40151;DHT22;25866;52.420;10.640;2022-10-15T14:21:51;19.00;99.90
40151;DHT22;25866;52.420;10.640;2022-10-15T14:24:33;19.00;99.90
40151;DHT22;25866;52.420;10.640;2022-10-15T14:27:05;19.20;99.90
40151;DHT22;25866;52.420;10.640;2022-10-15T14:29:38;19.20;99.90
40151;DHT22;25866;52.420;10.640;2022-10-15T14:32:18;19.30;99.90
40151;DHT22;25866;52.420;10.640;2022-10-15T14:34:46;19.20;99.90
40151;DHT22;25866;52.420;10.640;2022-10-15T14:37:39;19.00;99.90
40151;DHT22;25866;52.420;10.640;2022-10-15T14:43:01;18.60;99.90
40151;DHT22;25866;52.420;10.640;2022-10-15T14:48:24;18.50;99.90
40151;DHT22;25866;52.420;10.640;2022-10-15T14:50:50;18.60;99.90
40151;DHT22;25866;52.420;10.640;2022-10-15T14:53:31;18.60;99.90
40151;DHT22;25866;52.420;10.640;2022-10-15T14:56:06;18.60;99.90
40151;DHT22;25866;52.420;10.640;2022-10-15T14:58:33;18.50;99.90
40151;DHT22;25866;52.420;10.640;2022-10-15T15:01:06;18.50;99.90
40151;DHT22;25866;52.420;10.640;2022-10-15T15:03:41;18.30;99.90
40151;DHT22;25866;52.420;10.640;2022-10-15T15:06:08;18.20;99.90
40151;DHT22;25866;52.420;10.640;2022-10-15T15:08:34;18.20;99.90
40151;DHT22;25866;52.420;10.640;2022-10-15T15:11:02;18.10;99.90
40151;DHT22;25866;52.420;10.640;2022-10-15T15:13:30;18.10;99.90
40151;DHT22;25866;52.420;10.640;2022-10-15T15:15:56;18.10;99.90
40151;DHT22;25866;52.420;10.640;2022-10-15T15:18:23;18.10;99.90
40151;DHT22;25866;52.420;10.640;2022-10-15T15:20:50;18.10;99.90
40151;DHT22;25866;52.420;10.640;2022-10-15T15:23:21;18.10;99.90
40151;DHT22;25866;52.420;10.640;2022-10-15T15:25:48;18.10;99.90
40151;DHT22;25866;52.420;10.640;2022-10-15T15:28:16;18.10;99.90
40151;DHT22;25866;52.420;10.640;2022-10-15T15:30:44;18.00;99.90
40151;DHT22;25866;52.420;10.640;2022-10-15T15:33:14;18.10;99.90
40151;DHT22;25866;52.420;10.640;2022-10-15T15:35:51;18.10;99.90
40151;DHT22;25866;52.420;10.640;2022-10-15T15:38:19;18.10;99.90
40151;DHT22;25866;52.420;10.640;2022-10-15T15:40:46;18.00;99.90
40151;DHT22;25866;52.420;10.640;2022-10-15T15:43:13;18.00;99.90
40151;DHT22;25866;52.420;10.640;2022-10-15T15:45:40;18.10;99.90
40151;DHT22;25866;52.420;10.640;2022-10-15T15:48:05;18.00;99.90
40151;DHT22;25866;52.420;10.640;2022-10-15T15:50:31;18.00;99.90
40151;DHT22;25866;52.420;10.640;2022-10-15T15:52:57;17.90;99.90
40151;DHT22;25866;52.420;10.640;2022-10-15T15:55:23;17.90;99.90
40151;DHT22;25866;52.420;10.640;2022-10-15T15:57:49;18.00;99.90
40151;DHT22;25866;52.420;10.640;2022-10-15T16:00:15;18.00;99.90
40151;DHT22;25866;52.420;10.640;2022-10-15T16:02:42;17.90;99.90
40151;DHT22;25866;52.420;10.640;2022-10-15T16:05:11;17.90;99.90
40151;DHT22;25866;52.420;10.640;2022-10-15T16:07:37;17.80;99.90
40151;DHT22;25866;52.420;10.640;2022-10-15T16:10:04;17.80;99.90
40151;DHT22;25866;52.420;10.640;2022-10-15T16:12:33;17.80;99.90
40151;DHT22;25866;52.420;10.640;2022-10-15T16:14:59;17.70;99.90
40151;DHT22;25866;52.420;10.640;2022-10-15T16:17:25;17.70;99.90
40151;DHT22;25866;52.420;10.640;2022-10-15T16:19:51;17.70;99.90
40151;DHT22;25866;52.420;10.640;2022-10-15T16:22:16;17.70;99.90
40151;DHT22;25866;52.420;10.640;2022-10-15T16:24:42;17.70;99.90
40151;DHT22;25866;52.420;10.640;2022-10-15T16:27:08;17.60;99.90
40151;DHT22;25866;52.420;10.640;2022-10-15T16:29:35;17.70;99.90
40151;DHT22;25866;52.420;10.640;2022-10-15T16:32:00;17.60;99.90
40151;DHT22;25866;52.420;10.640;2022-10-15T16:34:26;17.60;99.90
40151;DHT22;25866;52.420;10.640;2022-10-15T16:36:52;17.60;99.90
40151;DHT22;25866;52.420;10.640;2022-10-15T16:39:18;17.60;99.90
40151;DHT22;25866;52.420;10.640;2022-10-15T16:41:43;17.50;99.90
40151;DHT22;25866;52.420;10.640;2022-10-15T16:44:09;17.60;99.90
40151;DHT22;25866;52.420;10.640;2022-10-15T16:46:35;17.50;99.90
40151;DHT22;25866;52.420;10.640;2022-10-15T16:49:01;17.50;99.90
40151;DHT22;25866;52.420;10.640;2022-10-15T16:51:27;17.40;99.90
40151;DHT22;25866;52.420;10.640;2022-10-15T16:53:52;17.40;99.90
40151;DHT22;25866;52.420;10.640;2022-10-15T16:56:27;17.40;99.90
40151;DHT22;25866;52.420;10.640;2022-10-15T16:58:54;17.40;99.90
40151;DHT22;25866;52.420;10.640;2022-10-15T17:01:22;17.40;99.90
40151;DHT22;25866;52.420;10.640;2022-10-15T17:03:48;17.30;99.90
40151;DHT22;25866;52.420;10.640;2022-10-15T17:06:16;17.30;99.90
40151;DHT22;25866;52.420;10.640;2022-10-15T17:08:45;17.30;99.90
40151;DHT22;25866;52.420;10.640;2022-10-15T17:11:17;17.20;99.90
40151;DHT22;25866;52.420;10.640;2022-10-15T17:13:43;17.20;99.90
40151;DHT22;25866;52.420;10.640;2022-10-15T17:16:15;17.20;99.90
40151;DHT22;25866;52.420;10.640;2022-10-15T17:18:42;17.20;99.90
40151;DHT22;25866;52.420;10.640;2022-10-15T17:21:17;17.10;99.90
40151;DHT22;25866;52.420;10.640;2022-10-15T17:23:43;17.10;99.90
40151;DHT22;25866;52.420;10.640;2022-10-15T17:26:12;17.00;99.90
40151;DHT22;25866;52.420;10.640;2022-10-15T17:28:38;17.00;99.90
40151;DHT22;25866;52.420;10.640;2022-10-15T17:31:11;16.90;99.90
40151;DHT22;25866;52.420;10.640;2022-10-15T17:33:38;16.90;99.90
40151;DHT22;25866;52.420;10.640;2022-10-15T17:36:09;16.80;99.90
40151;DHT22;25866;52.420;10.640;2022-10-15T17:38:36;16.80;99.90
40151;DHT22;25866;52.420;10.640;2022-10-15T17:41:07;16.80;99.90
40151;DHT22;25866;52.420;10.640;2022-10-15T17:43:33;16.80;99.90